sensor_id;sensor_type;location;lat;lon;timestamp;P1;durP1;ratioP1;P2;durP2;ratioP2
9924;SDS011;5001;51.674;7.868;2024-02-04T00:01:20;27.87;;;23.67;;
9924;SDS011;5001;51.674;7.868;2024-02-04T00:03:47;32.83;;;24.20;;
9924;SDS011;5001;51.674;7.868;2024-02-04T00:06:14;29.27;;;24.03;;
9924;SDS011;5001;51.674;7.868;2024-02-04T00:08:41;28.67;;;21.70;;
9924;SDS011;5001;51.674;7.868;2024-02-04T00:11:08;28.77;;;24.23;;
9924;SDS011;5001;51.674;7.868;2024-02-04T00:13:38;26.77;;;22.63;;
9924;SDS011;5001;51.674;7.868;2024-02-04T00:16:05;25.37;;;21.53;;
9924;SDS011;5001;51.674;7.868;2024-02-04T00:18:33;30.83;;;24.07;;
9924;SDS011;5001;51.674;7.868;2024-02-04T00:21:01;31.20;;;24.77;;
9924;SDS011;5001;51.674;7.868;2024-02-04T00:23:28;27.13;;;22.77;;
9924;SDS011;5001;51.674;7.868;2024-02-04T00:25:55;26.33;;;22.90;;
9924;SDS011;5001;51.674;7.868;2024-02-04T00:28:22;31.00;;;24.73;;
9924;SDS011;5001;51.674;7.868;2024-02-04T00:30:49;33.03;;;26.23;;
9924;SDS011;5001;51.674;7.868;2024-02-04T00:33:19;34.33;;;26.60;;
9924;SDS011;5001;51.674;7.868;2024-02-04T00:35:46;34.53;;;26.37;;
9924;SDS011;5001;51.674;7.868;2024-02-04T00:38:14;36.97;;;26.80;;
9924;SDS011;5001;51.674;7.868;2024-02-04T00:40:41;32.73;;;24.43;;
9924;SDS011;5001;51.674;7.868;2024-02-04T00:43:08;34.07;;;24.93;;
9924;SDS011;5001;51.674;7.868;2024-02-04T00:45:35;30.20;;;24.03;;
9924;SDS011;5001;51.674;7.868;2024-02-04T00:48:02;28.97;;;23.70;;
9924;SDS011;5001;51.674;7.868;2024-02-04T00:50:30;29.00;;;23.83;;
9924;SDS011;5001;51.674;7.868;2024-02-04T00:52:57;27.93;;;22.83;;
9924;SDS011;5001;51.674;7.868;2024-02-04T00:55:24;30.97;;;23.80;;
9924;SDS011;5001;51.674;7.868;2024-02-04T00:57:51;32.40;;;24.57;;
9924;SDS011;5001;51.674;7.868;2024-02-04T01:00:22;28.73;;;23.67;;
9924;SDS011;5001;51.674;7.868;2024-02-04T01:02:49;31.80;;;22.80;;
9924;SDS011;5001;51.674;7.868;2024-02-04T01:05:16;29.33;;;23.60;;
9924;SDS011;5001;51.674;7.868;2024-02-04T01:07:43;30.77;;;23.63;;
9924;SDS011;5001;51.674;7.868;2024-02-04T01:10:10;28.63;;;22.70;;
9924;SDS011;5001;51.674;7.868;2024-02-04T01:12:38;29.00;;;22.40;;
9924;SDS011;5001;51.674;7.868;2024-02-04T01:15:05;27.63;;;21.37;;
9924;SDS011;5001;51.674;7.868;2024-02-04T01:17:32;28.33;;;21.07;;
9924;SDS011;5001;51.674;7.868;2024-02-04T01:20:00;24.30;;;20.60;;
9924;SDS011;5001;51.674;7.868;2024-02-04T01:22:27;24.03;;;19.90;;
9924;SDS011;5001;51.674;7.868;2024-02-04T01:24:54;24.40;;;20.07;;
9924;SDS011;5001;51.674;7.868;2024-02-04T01:27:22;22.93;;;18.60;;
9924;SDS011;5001;51.674;7.868;2024-02-04T01:29:49;22.27;;;18.10;;
9924;SDS011;5001;51.674;7.868;2024-02-04T01:32:17;23.30;;;18.77;;
9924;SDS011;5001;51.674;7.868;2024-02-04T01:34:44;23.60;;;18.27;;
9924;SDS011;5001;51.674;7.868;2024-02-04T01:37:11;22.27;;;17.90;;
9924;SDS011;5001;51.674;7.868;2024-02-04T01:39:38;19.47;;;17.20;;
9924;SDS011;5001;51.674;7.868;2024-02-04T01:42:05;22.63;;;18.33;;
9924;SDS011;5001;51.674;7.868;2024-02-04T01:44:33;22.50;;;17.07;;
9924;SDS011;5001;51.674;7.868;2024-02-04T01:47:03;21.43;;;17.70;;
9924;SDS011;5001;51.674;7.868;2024-02-04T01:49:30;19.00;;;15.20;;
9924;SDS011;5001;51.674;7.868;2024-02-04T01:51:58;18.17;;;15.87;;
9924;SDS011;5001;51.674;7.868;2024-02-04T01:54:26;21.87;;;17.10;;
9924;SDS011;5001;51.674;7.868;2024-02-04T01:56:54;18.10;;;14.73;;
9924;SDS011;5001;51.674;7.868;2024-02-04T01:59:22;17.30;;;13.87;;
9924;SDS011;5001;51.674;7.868;2024-02-04T02:01:54;16.43;;;13.03;;
9924;SDS011;5001;51.674;7.868;2024-02-04T02:04:22;16.97;;;13.90;;
9924;SDS011;5001;51.674;7.868;2024-02-04T02:06:49;14.07;;;12.57;;
9924;SDS011;5001;51.674;7.868;2024-02-04T02:09:17;13.83;;;12.17;;
9924;SDS011;5001;51.674;7.868;2024-02-04T02:11:47;13.60;;;11.77;;
9924;SDS011;5001;51.674;7.868;2024-02-04T02:14:32;13.63;;;11.73;;
9924;SDS011;5001;51.674;7.868;2024-02-04T02:17:02;12.83;;;11.53;;
9924;SDS011;5001;51.674;7.868;2024-02-04T02:22:22;12.30;;;11.10;;
9924;SDS011;5001;51.674;7.868;2024-02-04T02:24:56;9.97;;;9.13;;
9924;SDS011;5001;51.674;7.868;2024-02-04T02:27:25;10.73;;;9.73;;
9924;SDS011;5001;51.674;7.868;2024-02-04T02:29:54;9.50;;;8.70;;
9924;SDS011;5001;51.674;7.868;2024-02-04T02:32:21;9.07;;;8.23;;
9924;SDS011;5001;51.674;7.868;2024-02-04T02:34:48;9.33;;;8.47;;
9924;SDS011;5001;51.674;7.868;2024-02-04T02:40:07;9.90;;;9.00;;
9924;SDS011;5001;51.674;7.868;2024-02-04T02:42:35;9.00;;;8.27;;
9924;SDS011;5001;51.674;7.868;2024-02-04T02:45:05;10.30;;;9.40;;
9924;SDS011;5001;51.674;7.868;2024-02-04T02:47:34;10.37;;;9.37;;
9924;SDS011;5001;51.674;7.868;2024-02-04T02:50:02;12.17;;;10.97;;
9924;SDS011;5001;51.674;7.868;2024-02-04T02:52:32;13.93;;;12.23;;
9924;SDS011;5001;51.674;7.868;2024-02-04T02:54:59;12.07;;;10.83;;
9924;SDS011;5001;51.674;7.868;2024-02-04T02:57:27;12.50;;;11.20;;
9924;SDS011;5001;51.674;7.868;2024-02-04T02:59:54;12.50;;;11.10;;
9924;SDS011;5001;51.674;7.868;2024-02-04T03:06:21;17.03;;;12.37;;
9924;SDS011;5001;51.674;7.868;2024-02-04T03:08:48;16.53;;;13.47;;
9924;SDS011;5001;51.674;7.868;2024-02-04T03:11:16;14.00;;;12.47;;
9924;SDS011;5001;51.674;7.868;2024-02-04T03:13:43;16.10;;;13.97;;
9924;SDS011;5001;51.674;7.868;2024-02-04T03:16:11;16.93;;;13.33;;
9924;SDS011;5001;51.674;7.868;2024-02-04T03:18:39;19.73;;;14.30;;
9924;SDS011;5001;51.674;7.868;2024-02-04T03:21:14;16.30;;;13.63;;
9924;SDS011;5001;51.674;7.868;2024-02-04T03:23:43;20.47;;;16.17;;
9924;SDS011;5001;51.674;7.868;2024-02-04T03:26:11;17.20;;;14.83;;
9924;SDS011;5001;51.674;7.868;2024-02-04T03:28:42;17.23;;;15.37;;
9924;SDS011;5001;51.674;7.868;2024-02-04T03:31:09;19.23;;;14.87;;
9924;SDS011;5001;51.674;7.868;2024-02-04T03:33:36;17.33;;;15.53;;
9924;SDS011;5001;51.674;7.868;2024-02-04T03:36:04;18.27;;;13.93;;
9924;SDS011;5001;51.674;7.868;2024-02-04T03:38:31;18.03;;;14.70;;
9924;SDS011;5001;51.674;7.868;2024-02-04T03:40:58;16.53;;;13.83;;
9924;SDS011;5001;51.674;7.868;2024-02-04T03:43:25;14.90;;;13.30;;
9924;SDS011;5001;51.674;7.868;2024-02-04T03:45:52;17.30;;;15.03;;
9924;SDS011;5001;51.674;7.868;2024-02-04T03:48:19;17.00;;;13.43;;
9924;SDS011;5001;51.674;7.868;2024-02-04T03:50:46;18.93;;;14.23;;
9924;SDS011;5001;51.674;7.868;2024-02-04T03:53:13;19.87;;;14.30;;
9924;SDS011;5001;51.674;7.868;2024-02-04T03:55:40;22.90;;;14.63;;
9924;SDS011;5001;51.674;7.868;2024-02-04T03:58:08;19.30;;;14.00;;
9924;SDS011;5001;51.674;7.868;2024-02-04T04:00:35;16.77;;;13.33;;
9924;SDS011;5001;51.674;7.868;2024-02-04T04:03:02;19.97;;;13.60;;
9924;SDS011;5001;51.674;7.868;2024-02-04T04:05:29;14.93;;;12.60;;
9924;SDS011;5001;51.674;7.868;2024-02-04T04:07:56;20.53;;;14.57;;
9924;SDS011;5001;51.674;7.868;2024-02-04T04:10:23;19.53;;;13.90;;
9924;SDS011;5001;51.674;7.868;2024-02-04T04:12:51;17.43;;;13.20;;
9924;SDS011;5001;51.674;7.868;2024-02-04T04:15:18;17.07;;;13.00;;
9924;SDS011;5001;51.674;7.868;2024-02-04T04:17:45;19.83;;;13.03;;
9924;SDS011;5001;51.674;7.868;2024-02-04T04:20:12;17.53;;;12.60;;
9924;SDS011;5001;51.674;7.868;2024-02-04T04:22:40;17.43;;;12.97;;
9924;SDS011;5001;51.674;7.868;2024-02-04T04:25:08;21.67;;;13.67;;
9924;SDS011;5001;51.674;7.868;2024-02-04T04:27:36;21.27;;;14.57;;
9924;SDS011;5001;51.674;7.868;2024-02-04T04:30:03;19.27;;;14.20;;
9924;SDS011;5001;51.674;7.868;2024-02-04T04:32:31;18.30;;;14.00;;
9924;SDS011;5001;51.674;7.868;2024-02-04T04:34:58;23.13;;;15.87;;
9924;SDS011;5001;51.674;7.868;2024-02-04T04:37:26;16.97;;;13.73;;
9924;SDS011;5001;51.674;7.868;2024-02-04T04:39:53;19.63;;;13.77;;
9924;SDS011;5001;51.674;7.868;2024-02-04T04:42:20;20.60;;;13.93;;
9924;SDS011;5001;51.674;7.868;2024-02-04T04:44:47;21.43;;;14.23;;
9924;SDS011;5001;51.674;7.868;2024-02-04T04:47:14;18.53;;;13.90;;
9924;SDS011;5001;51.674;7.868;2024-02-04T04:49:42;16.83;;;14.53;;
9924;SDS011;5001;51.674;7.868;2024-02-04T04:52:09;17.07;;;14.00;;
9924;SDS011;5001;51.674;7.868;2024-02-04T04:54:36;19.93;;;14.37;;
9924;SDS011;5001;51.674;7.868;2024-02-04T04:57:03;16.97;;;14.03;;
9924;SDS011;5001;51.674;7.868;2024-02-04T04:59:30;19.07;;;14.60;;
9924;SDS011;5001;51.674;7.868;2024-02-04T05:01:58;23.90;;;13.93;;
9924;SDS011;5001;51.674;7.868;2024-02-04T05:04:25;24.73;;;14.80;;
9924;SDS011;5001;51.674;7.868;2024-02-04T05:06:52;21.57;;;15.73;;
9924;SDS011;5001;51.674;7.868;2024-02-04T05:09:20;24.60;;;16.33;;
9924;SDS011;5001;51.674;7.868;2024-02-04T05:11:47;26.30;;;17.03;;
9924;SDS011;5001;51.674;7.868;2024-02-04T05:14:14;22.83;;;16.37;;
9924;SDS011;5001;51.674;7.868;2024-02-04T05:16:41;22.40;;;16.47;;
9924;SDS011;5001;51.674;7.868;2024-02-04T05:19:10;23.00;;;16.33;;
9924;SDS011;5001;51.674;7.868;2024-02-04T05:21:53;23.43;;;16.23;;
9924;SDS011;5001;51.674;7.868;2024-02-04T05:24:20;19.73;;;14.43;;
9924;SDS011;5001;51.674;7.868;2024-02-04T05:27:22;22.50;;;15.87;;
9924;SDS011;5001;51.674;7.868;2024-02-04T05:29:50;22.10;;;17.50;;
9924;SDS011;5001;51.674;7.868;2024-02-04T05:32:17;24.70;;;17.60;;
9924;SDS011;5001;51.674;7.868;2024-02-04T05:34:44;29.00;;;18.27;;
9924;SDS011;5001;51.674;7.868;2024-02-04T05:37:11;25.23;;;18.07;;
9924;SDS011;5001;51.674;7.868;2024-02-04T05:39:39;27.67;;;19.60;;
9924;SDS011;5001;51.674;7.868;2024-02-04T05:42:07;27.30;;;19.67;;
9924;SDS011;5001;51.674;7.868;2024-02-04T05:44:34;30.37;;;19.73;;
9924;SDS011;5001;51.674;7.868;2024-02-04T05:47:01;24.90;;;19.23;;
9924;SDS011;5001;51.674;7.868;2024-02-04T05:49:29;34.87;;;19.73;;
9924;SDS011;5001;51.674;7.868;2024-02-04T05:51:58;22.23;;;17.43;;
9924;SDS011;5001;51.674;7.868;2024-02-04T05:54:25;23.57;;;17.70;;
9924;SDS011;5001;51.674;7.868;2024-02-04T05:56:53;26.77;;;18.60;;
9924;SDS011;5001;51.674;7.868;2024-02-04T05:59:20;27.03;;;17.60;;
9924;SDS011;5001;51.674;7.868;2024-02-04T06:01:47;26.30;;;18.63;;
9924;SDS011;5001;51.674;7.868;2024-02-04T06:04:14;32.40;;;18.13;;
9924;SDS011;5001;51.674;7.868;2024-02-04T06:06:41;23.03;;;17.77;;
9924;SDS011;5001;51.674;7.868;2024-02-04T06:09:08;27.73;;;18.37;;
9924;SDS011;5001;51.674;7.868;2024-02-04T06:11:36;27.77;;;17.40;;
9924;SDS011;5001;51.674;7.868;2024-02-04T06:14:03;23.73;;;18.47;;
9924;SDS011;5001;51.674;7.868;2024-02-04T06:16:31;26.07;;;17.60;;
9924;SDS011;5001;51.674;7.868;2024-02-04T06:19:00;22.33;;;16.83;;
9924;SDS011;5001;51.674;7.868;2024-02-04T06:21:27;25.23;;;17.17;;
9924;SDS011;5001;51.674;7.868;2024-02-04T06:23:56;19.43;;;17.37;;
9924;SDS011;5001;51.674;7.868;2024-02-04T06:26:23;25.10;;;19.73;;
9924;SDS011;5001;51.674;7.868;2024-02-04T06:28:50;24.97;;;17.80;;
9924;SDS011;5001;51.674;7.868;2024-02-04T06:31:20;24.60;;;18.07;;
9924;SDS011;5001;51.674;7.868;2024-02-04T06:33:47;21.63;;;17.63;;
9924;SDS011;5001;51.674;7.868;2024-02-04T06:36:14;21.77;;;17.93;;
9924;SDS011;5001;51.674;7.868;2024-02-04T06:38:41;23.07;;;19.37;;
9924;SDS011;5001;51.674;7.868;2024-02-04T06:41:08;26.03;;;18.10;;
9924;SDS011;5001;51.674;7.868;2024-02-04T06:43:39;24.73;;;18.23;;
9924;SDS011;5001;51.674;7.868;2024-02-04T06:46:06;23.47;;;19.70;;
9924;SDS011;5001;51.674;7.868;2024-02-04T06:48:33;28.23;;;19.33;;
9924;SDS011;5001;51.674;7.868;2024-02-04T06:51:01;34.53;;;20.33;;
9924;SDS011;5001;51.674;7.868;2024-02-04T06:53:28;23.97;;;19.50;;
9924;SDS011;5001;51.674;7.868;2024-02-04T06:55:55;25.67;;;19.93;;
9924;SDS011;5001;51.674;7.868;2024-02-04T06:58:23;21.80;;;18.70;;
9924;SDS011;5001;51.674;7.868;2024-02-04T07:00:50;27.93;;;19.97;;
9924;SDS011;5001;51.674;7.868;2024-02-04T07:03:17;30.27;;;20.83;;
9924;SDS011;5001;51.674;7.868;2024-02-04T07:05:44;26.77;;;19.23;;
9924;SDS011;5001;51.674;7.868;2024-02-04T07:08:13;27.77;;;19.63;;
9924;SDS011;5001;51.674;7.868;2024-02-04T07:10:41;25.93;;;18.57;;
9924;SDS011;5001;51.674;7.868;2024-02-04T07:13:08;22.83;;;18.77;;
9924;SDS011;5001;51.674;7.868;2024-02-04T07:15:38;21.20;;;19.00;;
9924;SDS011;5001;51.674;7.868;2024-02-04T07:18:06;24.17;;;20.07;;
9924;SDS011;5001;51.674;7.868;2024-02-04T07:20:36;25.13;;;18.13;;
9924;SDS011;5001;51.674;7.868;2024-02-04T07:23:04;20.63;;;17.43;;
9924;SDS011;5001;51.674;7.868;2024-02-04T07:25:31;22.20;;;17.77;;
9924;SDS011;5001;51.674;7.868;2024-02-04T07:28:02;23.27;;;17.87;;
9924;SDS011;5001;51.674;7.868;2024-02-04T07:30:30;20.23;;;17.37;;
9924;SDS011;5001;51.674;7.868;2024-02-04T07:32:56;24.00;;;17.67;;
9924;SDS011;5001;51.674;7.868;2024-02-04T07:35:25;20.00;;;17.00;;
9924;SDS011;5001;51.674;7.868;2024-02-04T07:37:52;20.37;;;16.40;;
9924;SDS011;5001;51.674;7.868;2024-02-04T07:40:18;19.47;;;16.40;;
9924;SDS011;5001;51.674;7.868;2024-02-04T07:42:46;19.37;;;16.67;;
9924;SDS011;5001;51.674;7.868;2024-02-04T07:45:13;18.67;;;15.93;;
9924;SDS011;5001;51.674;7.868;2024-02-04T07:47:43;17.53;;;15.73;;
9924;SDS011;5001;51.674;7.868;2024-02-04T07:50:10;21.70;;;16.70;;
9924;SDS011;5001;51.674;7.868;2024-02-04T07:52:38;21.33;;;17.37;;
9924;SDS011;5001;51.674;7.868;2024-02-04T07:55:09;20.03;;;17.97;;
9924;SDS011;5001;51.674;7.868;2024-02-04T07:57:36;22.17;;;18.37;;
9924;SDS011;5001;51.674;7.868;2024-02-04T08:00:04;21.53;;;18.17;;
9924;SDS011;5001;51.674;7.868;2024-02-04T08:02:37;29.47;;;17.43;;
9924;SDS011;5001;51.674;7.868;2024-02-04T08:05:04;20.60;;;18.33;;
9924;SDS011;5001;51.674;7.868;2024-02-04T08:07:32;18.70;;;16.63;;
9924;SDS011;5001;51.674;7.868;2024-02-04T08:09:59;19.57;;;17.47;;
9924;SDS011;5001;51.674;7.868;2024-02-04T08:12:27;21.97;;;18.00;;
9924;SDS011;5001;51.674;7.868;2024-02-04T08:14:54;19.60;;;17.33;;
9924;SDS011;5001;51.674;7.868;2024-02-04T08:17:21;22.17;;;17.77;;
9924;SDS011;5001;51.674;7.868;2024-02-04T08:19:48;25.20;;;18.03;;
9924;SDS011;5001;51.674;7.868;2024-02-04T08:22:15;21.93;;;17.97;;
9924;SDS011;5001;51.674;7.868;2024-02-04T08:24:44;25.07;;;17.73;;
9924;SDS011;5001;51.674;7.868;2024-02-04T08:27:11;20.23;;;17.30;;
9924;SDS011;5001;51.674;7.868;2024-02-04T08:29:39;22.17;;;18.40;;
9924;SDS011;5001;51.674;7.868;2024-02-04T08:32:08;23.83;;;19.20;;
9924;SDS011;5001;51.674;7.868;2024-02-04T08:34:35;23.70;;;18.93;;
9924;SDS011;5001;51.674;7.868;2024-02-04T08:37:02;24.20;;;19.83;;
9924;SDS011;5001;51.674;7.868;2024-02-04T08:39:30;23.23;;;18.63;;
9924;SDS011;5001;51.674;7.868;2024-02-04T08:41:57;19.67;;;17.60;;
9924;SDS011;5001;51.674;7.868;2024-02-04T08:44:24;21.00;;;18.17;;
9924;SDS011;5001;51.674;7.868;2024-02-04T08:47:04;20.73;;;18.30;;
9924;SDS011;5001;51.674;7.868;2024-02-04T08:49:31;20.07;;;18.07;;
9924;SDS011;5001;51.674;7.868;2024-02-04T08:51:58;23.63;;;20.67;;
9924;SDS011;5001;51.674;7.868;2024-02-04T08:54:25;20.63;;;18.63;;
9924;SDS011;5001;51.674;7.868;2024-02-04T08:56:54;20.33;;;17.47;;
9924;SDS011;5001;51.674;7.868;2024-02-04T08:59:21;20.40;;;17.17;;
9924;SDS011;5001;51.674;7.868;2024-02-04T09:01:50;21.97;;;17.70;;
9924;SDS011;5001;51.674;7.868;2024-02-04T09:04:18;19.63;;;17.93;;
9924;SDS011;5001;51.674;7.868;2024-02-04T09:06:45;19.83;;;17.83;;
9924;SDS011;5001;51.674;7.868;2024-02-04T09:09:12;23.57;;;19.53;;
9924;SDS011;5001;51.674;7.868;2024-02-04T09:11:39;19.50;;;17.50;;
9924;SDS011;5001;51.674;7.868;2024-02-04T09:14:07;19.07;;;17.47;;
9924;SDS011;5001;51.674;7.868;2024-02-04T09:16:39;19.27;;;17.43;;
9924;SDS011;5001;51.674;7.868;2024-02-04T09:19:07;19.53;;;17.53;;
9924;SDS011;5001;51.674;7.868;2024-02-04T09:21:34;20.27;;;18.23;;
9924;SDS011;5001;51.674;7.868;2024-02-04T09:24:01;18.80;;;16.93;;
9924;SDS011;5001;51.674;7.868;2024-02-04T09:26:28;19.47;;;17.63;;
9924;SDS011;5001;51.674;7.868;2024-02-04T09:28:55;17.63;;;16.23;;
9924;SDS011;5001;51.674;7.868;2024-02-04T09:31:23;17.60;;;16.20;;
9924;SDS011;5001;51.674;7.868;2024-02-04T09:33:50;16.27;;;15.13;;
9924;SDS011;5001;51.674;7.868;2024-02-04T09:36:17;17.03;;;15.63;;
9924;SDS011;5001;51.674;7.868;2024-02-04T09:38:44;17.37;;;16.17;;
9924;SDS011;5001;51.674;7.868;2024-02-04T09:41:11;19.27;;;17.30;;
9924;SDS011;5001;51.674;7.868;2024-02-04T09:43:38;17.83;;;16.53;;
9924;SDS011;5001;51.674;7.868;2024-02-04T09:46:06;17.53;;;16.33;;
9924;SDS011;5001;51.674;7.868;2024-02-04T09:48:34;16.63;;;15.43;;
9924;SDS011;5001;51.674;7.868;2024-02-04T09:51:05;16.27;;;15.17;;
9924;SDS011;5001;51.674;7.868;2024-02-04T09:53:34;17.37;;;16.13;;
9924;SDS011;5001;51.674;7.868;2024-02-04T09:56:02;17.83;;;16.43;;
9924;SDS011;5001;51.674;7.868;2024-02-04T09:58:30;18.70;;;16.87;;
9924;SDS011;5001;51.674;7.868;2024-02-04T10:00:58;17.50;;;16.10;;
9924;SDS011;5001;51.674;7.868;2024-02-04T10:03:29;17.30;;;15.80;;
9924;SDS011;5001;51.674;7.868;2024-02-04T10:05:57;15.83;;;14.73;;
9924;SDS011;5001;51.674;7.868;2024-02-04T10:08:24;16.33;;;15.23;;
9924;SDS011;5001;51.674;7.868;2024-02-04T10:10:52;16.30;;;15.10;;
9924;SDS011;5001;51.674;7.868;2024-02-04T10:13:21;16.13;;;15.07;;
9924;SDS011;5001;51.674;7.868;2024-02-04T10:15:49;16.00;;;14.80;;
9924;SDS011;5001;51.674;7.868;2024-02-04T10:18:17;17.17;;;15.77;;
9924;SDS011;5001;51.674;7.868;2024-02-04T10:20:44;16.50;;;15.17;;
9924;SDS011;5001;51.674;7.868;2024-02-04T10:23:11;16.80;;;15.60;;
9924;SDS011;5001;51.674;7.868;2024-02-04T10:25:38;17.10;;;15.87;;
9924;SDS011;5001;51.674;7.868;2024-02-04T10:28:06;16.80;;;15.70;;
9924;SDS011;5001;51.674;7.868;2024-02-04T10:30:37;16.53;;;15.40;;
9924;SDS011;5001;51.674;7.868;2024-02-04T10:33:06;16.23;;;15.00;;
9924;SDS011;5001;51.674;7.868;2024-02-04T10:35:33;17.20;;;15.70;;
9924;SDS011;5001;51.674;7.868;2024-02-04T10:38:00;15.63;;;14.63;;
9924;SDS011;5001;51.674;7.868;2024-02-04T10:40:27;16.00;;;14.90;;
9924;SDS011;5001;51.674;7.868;2024-02-04T10:42:55;16.23;;;14.97;;
9924;SDS011;5001;51.674;7.868;2024-02-04T10:45:32;16.10;;;14.90;;
9924;SDS011;5001;51.674;7.868;2024-02-04T10:48:01;16.03;;;15.00;;
9924;SDS011;5001;51.674;7.868;2024-02-04T10:50:30;16.97;;;15.57;;
9924;SDS011;5001;51.674;7.868;2024-02-04T10:53:04;18.00;;;16.70;;
9924;SDS011;5001;51.674;7.868;2024-02-04T10:55:40;16.90;;;15.50;;
9924;SDS011;5001;51.674;7.868;2024-02-04T10:58:09;16.52;;;15.32;;
9924;SDS011;5001;51.674;7.868;2024-02-04T11:00:38;16.85;;;15.65;;
9924;SDS011;5001;51.674;7.868;2024-02-04T11:03:07;16.35;;;15.25;;
9924;SDS011;5001;51.674;7.868;2024-02-04T11:05:35;16.60;;;15.40;;
9924;SDS011;5001;51.674;7.868;2024-02-04T11:08:03;15.87;;;14.87;;
9924;SDS011;5001;51.674;7.868;2024-02-04T11:10:34;16.63;;;15.53;;
9924;SDS011;5001;51.674;7.868;2024-02-04T11:13:03;17.60;;;16.20;;
9924;SDS011;5001;51.674;7.868;2024-02-04T11:15:32;16.17;;;15.07;;
9924;SDS011;5001;51.674;7.868;2024-02-04T11:26:59;14.93;;;13.83;;
9924;SDS011;5001;51.674;7.868;2024-02-04T11:29:27;14.47;;;13.40;;
9924;SDS011;5001;51.674;7.868;2024-02-04T11:31:54;16.13;;;14.83;;
9924;SDS011;5001;51.674;7.868;2024-02-04T11:34:25;15.17;;;13.90;;
9924;SDS011;5001;51.674;7.868;2024-02-04T11:36:52;14.73;;;13.63;;
9924;SDS011;5001;51.674;7.868;2024-02-04T11:39:20;15.37;;;14.17;;
9924;SDS011;5001;51.674;7.868;2024-02-04T11:41:50;15.40;;;14.30;;
9924;SDS011;5001;51.674;7.868;2024-02-04T11:44:21;14.97;;;13.77;;
9924;SDS011;5001;51.674;7.868;2024-02-04T11:46:54;16.27;;;14.87;;
9924;SDS011;5001;51.674;7.868;2024-02-04T11:49:24;15.43;;;14.03;;
9924;SDS011;5001;51.674;7.868;2024-02-04T11:51:54;15.47;;;14.23;;
9924;SDS011;5001;51.674;7.868;2024-02-04T11:54:21;14.97;;;13.77;;
9924;SDS011;5001;51.674;7.868;2024-02-04T11:56:49;15.70;;;14.50;;
9924;SDS011;5001;51.674;7.868;2024-02-04T11:59:20;15.03;;;14.03;;
9924;SDS011;5001;51.674;7.868;2024-02-04T12:01:56;14.97;;;13.87;;
9924;SDS011;5001;51.674;7.868;2024-02-04T12:04:27;14.87;;;13.77;;
9924;SDS011;5001;51.674;7.868;2024-02-04T12:06:56;15.00;;;13.90;;
9924;SDS011;5001;51.674;7.868;2024-02-04T12:09:23;14.73;;;13.77;;
9924;SDS011;5001;51.674;7.868;2024-02-04T12:11:53;14.47;;;13.57;;
9924;SDS011;5001;51.674;7.868;2024-02-04T12:14:20;15.10;;;14.10;;
9924;SDS011;5001;51.674;7.868;2024-02-04T12:16:48;16.40;;;15.07;;
9924;SDS011;5001;51.674;7.868;2024-02-04T12:19:15;15.97;;;14.60;;
9924;SDS011;5001;51.674;7.868;2024-02-04T12:21:44;15.43;;;14.33;;
9924;SDS011;5001;51.674;7.868;2024-02-04T12:24:12;15.13;;;14.03;;
9924;SDS011;5001;51.674;7.868;2024-02-04T12:26:39;16.97;;;15.77;;
9924;SDS011;5001;51.674;7.868;2024-02-04T12:29:07;15.80;;;14.70;;
9924;SDS011;5001;51.674;7.868;2024-02-04T12:31:34;15.47;;;14.30;;
9924;SDS011;5001;51.674;7.868;2024-02-04T12:34:03;15.67;;;14.50;;
9924;SDS011;5001;51.674;7.868;2024-02-04T12:36:31;15.77;;;14.57;;
9924;SDS011;5001;51.674;7.868;2024-02-04T12:38:59;15.70;;;14.60;;
9924;SDS011;5001;51.674;7.868;2024-02-04T12:41:27;15.50;;;14.20;;
9924;SDS011;5001;51.674;7.868;2024-02-04T12:43:56;15.40;;;14.30;;
9924;SDS011;5001;51.674;7.868;2024-02-04T12:46:28;15.47;;;14.17;;
9924;SDS011;5001;51.674;7.868;2024-02-04T12:48:56;15.47;;;14.37;;
9924;SDS011;5001;51.674;7.868;2024-02-04T12:51:31;15.30;;;14.20;;
9924;SDS011;5001;51.674;7.868;2024-02-04T12:54:09;14.80;;;13.83;;
9924;SDS011;5001;51.674;7.868;2024-02-04T12:56:41;14.30;;;13.40;;
9924;SDS011;5001;51.674;7.868;2024-02-04T12:59:31;14.50;;;13.60;;
9924;SDS011;5001;51.674;7.868;2024-02-04T13:02:01;14.67;;;13.77;;
9924;SDS011;5001;51.674;7.868;2024-02-04T13:04:38;14.57;;;13.47;;
9924;SDS011;5001;51.674;7.868;2024-02-04T13:07:10;13.50;;;12.50;;
9924;SDS011;5001;51.674;7.868;2024-02-04T13:09:45;13.83;;;12.87;;
9924;SDS011;5001;51.674;7.868;2024-02-04T13:12:14;13.70;;;12.70;;
9924;SDS011;5001;51.674;7.868;2024-02-04T13:14:42;12.93;;;12.03;;
9924;SDS011;5001;51.674;7.868;2024-02-04T13:17:10;13.13;;;12.13;;
9924;SDS011;5001;51.674;7.868;2024-02-04T13:19:38;11.63;;;10.83;;
9924;SDS011;5001;51.674;7.868;2024-02-04T13:22:06;11.87;;;11.17;;
9924;SDS011;5001;51.674;7.868;2024-02-04T13:24:33;11.50;;;10.80;;
9924;SDS011;5001;51.674;7.868;2024-02-04T13:27:01;12.00;;;11.20;;
9924;SDS011;5001;51.674;7.868;2024-02-04T13:29:30;12.83;;;11.73;;
9924;SDS011;5001;51.674;7.868;2024-02-04T13:31:57;11.67;;;10.87;;
9924;SDS011;5001;51.674;7.868;2024-02-04T13:34:25;10.97;;;10.07;;
9924;SDS011;5001;51.674;7.868;2024-02-04T13:36:52;10.97;;;10.27;;
9924;SDS011;5001;51.674;7.868;2024-02-04T13:39:20;10.43;;;9.63;;
9924;SDS011;5001;51.674;7.868;2024-02-04T13:41:46;13.40;;;12.10;;
9924;SDS011;5001;51.674;7.868;2024-02-04T13:44:13;13.03;;;11.93;;
9924;SDS011;5001;51.674;7.868;2024-02-04T13:46:40;12.10;;;11.20;;
9924;SDS011;5001;51.674;7.868;2024-02-04T13:49:09;11.70;;;10.90;;
9924;SDS011;5001;51.674;7.868;2024-02-04T13:51:39;13.13;;;12.13;;
9924;SDS011;5001;51.674;7.868;2024-02-04T13:54:11;13.50;;;12.40;;
9924;SDS011;5001;51.674;7.868;2024-02-04T13:56:44;15.17;;;13.87;;
9924;SDS011;5001;51.674;7.868;2024-02-04T13:59:12;16.37;;;14.97;;
9924;SDS011;5001;51.674;7.868;2024-02-04T14:01:39;14.80;;;13.50;;
9924;SDS011;5001;51.674;7.868;2024-02-04T14:04:06;14.10;;;12.90;;
9924;SDS011;5001;51.674;7.868;2024-02-04T14:06:33;16.73;;;15.17;;
9924;SDS011;5001;51.674;7.868;2024-02-04T14:09:02;13.57;;;12.47;;
9924;SDS011;5001;51.674;7.868;2024-02-04T14:11:29;12.80;;;11.90;;
9924;SDS011;5001;51.674;7.868;2024-02-04T14:13:56;13.07;;;12.13;;
9924;SDS011;5001;51.674;7.868;2024-02-04T14:16:23;13.20;;;11.93;;
9924;SDS011;5001;51.674;7.868;2024-02-04T14:18:52;11.67;;;10.60;;
9924;SDS011;5001;51.674;7.868;2024-02-04T14:21:22;11.13;;;10.33;;
9924;SDS011;5001;51.674;7.868;2024-02-04T14:23:50;11.97;;;11.07;;
9924;SDS011;5001;51.674;7.868;2024-02-04T14:26:17;11.20;;;10.37;;
9924;SDS011;5001;51.674;7.868;2024-02-04T14:28:45;11.37;;;10.47;;
9924;SDS011;5001;51.674;7.868;2024-02-04T14:31:13;10.60;;;9.90;;
9924;SDS011;5001;51.674;7.868;2024-02-04T14:33:43;11.20;;;10.20;;
9924;SDS011;5001;51.674;7.868;2024-02-04T14:36:14;9.97;;;9.37;;
9924;SDS011;5001;51.674;7.868;2024-02-04T14:38:41;10.57;;;9.87;;
9924;SDS011;5001;51.674;7.868;2024-02-04T14:41:08;10.40;;;9.70;;
9924;SDS011;5001;51.674;7.868;2024-02-04T14:43:36;10.43;;;9.67;;
9924;SDS011;5001;51.674;7.868;2024-02-04T14:46:03;10.70;;;10.00;;
9924;SDS011;5001;51.674;7.868;2024-02-04T14:48:31;11.00;;;10.20;;
9924;SDS011;5001;51.674;7.868;2024-02-04T14:50:58;11.60;;;10.80;;
9924;SDS011;5001;51.674;7.868;2024-02-04T14:53:25;12.20;;;11.30;;
9924;SDS011;5001;51.674;7.868;2024-02-04T14:55:53;11.67;;;10.90;;
9924;SDS011;5001;51.674;7.868;2024-02-04T14:58:21;12.03;;;11.23;;
9924;SDS011;5001;51.674;7.868;2024-02-04T15:00:49;10.80;;;10.20;;
9924;SDS011;5001;51.674;7.868;2024-02-04T15:03:16;11.47;;;10.73;;
9924;SDS011;5001;51.674;7.868;2024-02-04T15:05:43;10.97;;;10.30;;
9924;SDS011;5001;51.674;7.868;2024-02-04T15:08:10;10.30;;;9.60;;
9924;SDS011;5001;51.674;7.868;2024-02-04T15:10:37;11.37;;;10.57;;
9924;SDS011;5001;51.674;7.868;2024-02-04T15:13:05;10.77;;;10.07;;